createdAt,value
2017-08-08T00:00:11.701Z,15.89
2017-08-08T00:01:11.071Z,15.85
2017-08-08T00:02:11.683Z,15.93
2017-08-08T00:03:11.689Z,15.92
2017-08-08T00:04:11.683Z,15.88
2017-08-08T00:05:11.020Z,15.88
2017-08-08T00:06:11.316Z,15.92
2017-08-08T00:07:11.303Z,15.93
2017-08-08T00:08:11.295Z,15.92
2017-08-08T00:09:11.595Z,15.93
2017-08-08T00:10:11.581Z,15.92
2017-08-08T00:11:11.575Z,15.97
2017-08-08T00:12:11.565Z,15.96
2017-08-08T00:13:11.555Z,16.01
2017-08-08T00:14:11.571Z,15.94
2017-08-08T00:15:11.212Z,16.01
2017-08-08T00:16:11.206Z,16.04
2017-08-08T00:17:11.190Z,16.04
2017-08-08T00:18:10.864Z,15.97
2017-08-08T00:19:11.169Z,15.96
2017-08-08T00:20:11.468Z,15.99
2017-08-08T00:21:11.456Z,16
2017-08-08T00:22:11.444Z,15.99
2017-08-08T00:23:11.433Z,15.94
2017-08-08T00:24:10.796Z,15.93
2017-08-08T00:25:11.096Z,15.99
2017-08-08T00:26:11.396Z,16.04
2017-08-08T00:27:11.391Z,16
2017-08-08T00:28:11.060Z,15.97
2017-08-08T00:29:11.050Z,16.06
2017-08-08T00:30:10.721Z,16.01
2017-08-08T00:31:11.042Z,16.07
2017-08-08T00:32:10.703Z,16
2017-08-08T00:33:11.009Z,16.11
2017-08-08T00:34:11.306Z,16.06
2017-08-08T00:35:11.298Z,16.04
2017-08-08T00:36:10.970Z,16.03
2017-08-08T00:37:10.959Z,16.07
2017-08-08T00:38:11.258Z,16
2017-08-08T00:39:11.244Z,16
2017-08-08T00:40:11.236Z,16.06
2017-08-08T00:41:10.913Z,16.04
2017-08-08T00:42:10.911Z,15.97
2017-08-08T00:43:11.202Z,15.97
2017-08-08T00:44:11.196Z,15.99
2017-08-08T00:45:10.869Z,15.99
2017-08-08T00:46:10.861Z,15.94
2017-08-08T00:47:10.850Z,15.94
2017-08-08T00:48:10.884Z,15.93
2017-08-08T00:49:10.826Z,15.92
2017-08-08T00:50:11.122Z,15.94
2017-08-08T00:51:10.795Z,15.93
2017-08-08T00:52:10.474Z,15.92
2017-08-08T00:53:11.112Z,15.92
2017-08-08T00:54:10.461Z,15.93
2017-08-08T00:55:10.756Z,15.88
2017-08-08T00:56:10.735Z,15.93
2017-08-08T00:57:10.729Z,15.94
2017-08-08T00:58:11.034Z,15.93
2017-08-08T00:59:10.395Z,15.92
2017-08-08T01:00:10.697Z,15.93
2017-08-08T01:01:10.997Z,15.93
2017-08-08T01:02:10.674Z,15.88
2017-08-08T01:03:10.658Z,15.88
2017-08-08T01:04:10.354Z,15.96
2017-08-08T01:05:10.949Z,15.92
2017-08-08T01:06:10.630Z,15.97
2017-08-08T01:07:10.924Z,15.93
2017-08-08T01:08:10.918Z,15.96
2017-08-08T01:09:10.587Z,15.93
2017-08-08T01:10:10.627Z,15.92
2017-08-08T01:11:10.880Z,16.04
2017-08-08T01:12:10.865Z,16.03
2017-08-08T01:13:10.546Z,16.07
2017-08-08T01:14:10.531Z,16.07
2017-08-08T01:15:10.521Z,16.09
2017-08-08T01:16:10.543Z,16.14
2017-08-08T01:17:10.503Z,16.16
2017-08-08T01:18:10.173Z,16.14
2017-08-08T01:19:10.800Z,16.09
2017-08-08T01:20:10.461Z,16.16
2017-08-08T01:21:10.460Z,16.18
2017-08-08T01:22:10.761Z,16.2
2017-08-08T01:23:10.744Z,16.16
2017-08-08T01:24:10.730Z,16.18
2017-08-08T01:25:10.406Z,16.22
2017-08-08T01:26:10.391Z,16.18
2017-08-08T01:27:10.696Z,16.18
2017-08-08T01:28:10.377Z,16.14
2017-08-08T01:29:10.367Z,16.11
2017-08-08T01:30:10.346Z,16.12
2017-08-08T01:31:10.339Z,16.11
2017-08-08T01:32:10.849Z,16.06
2017-08-08T01:33:10.316Z,16.01
2017-08-08T01:34:10.302Z,16.01
2017-08-08T01:35:10.351Z,15.97
2017-08-08T01:36:10.277Z,15.92
2017-08-08T01:37:10.266Z,15.86
2017-08-08T01:38:09.952Z,15.92
2017-08-08T01:39:10.247Z,15.81
2017-08-08T01:40:10.241Z,15.84
2017-08-08T01:41:10.226Z,15.72
2017-08-08T01:42:10.212Z,15.68
2017-08-08T01:43:10.518Z,15.75
2017-08-08T01:44:10.507Z,15.74
2017-08-08T01:45:10.175Z,15.64
2017-08-08T01:46:10.166Z,15.64
2017-08-08T01:47:10.156Z,15.64
2017-08-08T01:48:10.153Z,15.59
2017-08-08T01:49:10.451Z,15.64
2017-08-08T01:50:10.125Z,15.64
2017-08-08T01:51:09.804Z,15.61
2017-08-08T01:52:10.105Z,15.64
2017-08-08T01:53:10.090Z,15.63
2017-08-08T01:54:10.072Z,15.56
2017-08-08T01:55:10.064Z,15.52
2017-08-08T01:56:10.049Z,15.48
2017-08-08T01:57:10.040Z,15.51
2017-08-08T01:58:10.021Z,15.56
2017-08-08T01:59:10.324Z,15.51
2017-08-08T02:00:09.695Z,15.43
2017-08-08T02:01:09.992Z,15.42
2017-08-08T02:02:09.979Z,15.39
2017-08-08T02:03:09.964Z,15.36
2017-08-08T02:04:09.641Z,15.28
2017-08-08T02:05:10.264Z,15.42
2017-08-08T02:06:10.242Z,15.31
2017-08-08T02:07:09.921Z,15.23
2017-08-08T02:08:10.220Z,15.3
2017-08-08T02:09:09.896Z,15.3
2017-08-08T02:10:09.882Z,15.28
2017-08-08T02:11:09.874Z,15.24
2017-08-08T02:12:09.561Z,15.15
2017-08-08T02:13:10.161Z,15.19
2017-08-08T02:14:09.831Z,15.12
2017-08-08T02:15:10.136Z,15.17
2017-08-08T02:16:09.502Z,15.11
2017-08-08T02:17:10.110Z,15.15
2017-08-08T02:18:09.782Z,15.09
2017-08-08T02:19:10.091Z,15.17
2017-08-08T02:20:10.078Z,15.05
2017-08-08T02:21:10.114Z,15.02
2017-08-08T02:22:10.068Z,14.98
2017-08-08T02:23:09.728Z,15.02
2017-08-08T02:24:10.025Z,15.02
2017-08-08T02:25:09.712Z,14.99
2017-08-08T02:26:10.023Z,15.06
2017-08-08T02:27:09.679Z,15.08
2017-08-08T02:28:09.369Z,15.08
2017-08-08T02:29:09.974Z,15.05
2017-08-08T02:30:09.965Z,15.11
2017-08-08T02:31:09.954Z,15.13
2017-08-08T02:32:09.631Z,15.13
2017-08-08T02:33:09.607Z,15.05
2017-08-08T02:34:09.908Z,15.09
2017-08-08T02:35:09.602Z,15.08
2017-08-08T02:36:09.888Z,15.13
2017-08-08T02:37:09.563Z,15.11
2017-08-08T02:38:09.551Z,15.12
2017-08-08T02:39:09.849Z,15.11
2017-08-08T02:40:09.524Z,15.15
2017-08-08T02:41:09.513Z,15.09
2017-08-08T02:42:09.819Z,15.13
2017-08-08T02:43:09.807Z,15.13
2017-08-08T02:44:09.185Z,15.11
2017-08-08T02:45:09.468Z,15.13
2017-08-08T02:46:09.762Z,15.13
2017-08-08T02:47:09.756Z,15.11
2017-08-08T02:48:09.114Z,15.11
2017-08-08T02:49:09.413Z,15.11
2017-08-08T02:50:09.415Z,15.06
2017-08-08T02:51:09.087Z,15.13
2017-08-08T02:52:09.696Z,15.11
2017-08-08T02:53:09.374Z,15.06
2017-08-08T02:54:09.353Z,15.09
2017-08-08T02:55:09.340Z,15.12
2017-08-08T02:56:09.020Z,15.15
2017-08-08T02:57:09.634Z,15.11
2017-08-08T02:58:09.313Z,15.05
2017-08-08T02:59:09.606Z,15.17
2017-08-08T03:00:08.969Z,15.09
2017-08-08T03:01:09.270Z,14.98
2017-08-08T03:02:08.946Z,15.06
2017-08-08T03:03:09.247Z,14.99
2017-08-08T03:04:09.237Z,15.05
2017-08-08T03:05:09.220Z,15.08
2017-08-08T03:06:08.893Z,14.98
2017-08-08T03:07:09.195Z,15.02
2017-08-08T03:08:09.499Z,15.05
2017-08-08T03:09:09.480Z,15.05
2017-08-08T03:10:09.161Z,15.05
2017-08-08T03:11:09.161Z,14.98
2017-08-08T03:12:09.140Z,15.08
2017-08-08T03:13:08.813Z,15.05
2017-08-08T03:14:08.803Z,15.08
2017-08-08T03:15:09.110Z,15.09
2017-08-08T03:16:09.087Z,15.06
2017-08-08T03:17:09.386Z,15.06
2017-08-08T03:18:09.060Z,15.09
2017-08-08T03:19:09.050Z,15.09
2017-08-08T03:20:09.346Z,15.13
2017-08-08T03:21:09.029Z,15.12
2017-08-08T03:22:09.009Z,15.13
2017-08-08T03:23:09.310Z,15.17
2017-08-08T03:24:08.989Z,15.19
2017-08-08T03:25:09.287Z,15.2
2017-08-08T03:26:09.325Z,15.23
2017-08-08T03:27:09.270Z,15.26
2017-08-08T03:28:08.940Z,15.24
2017-08-08T03:29:09.240Z,15.28
2017-08-08T03:30:08.920Z,15.27
2017-08-08T03:31:09.229Z,15.3
2017-08-08T03:32:08.896Z,15.23
2017-08-08T03:33:09.414Z,15.26
2017-08-08T03:34:08.878Z,15.39
2017-08-08T03:35:08.552Z,15.33
2017-08-08T03:36:08.849Z,15.33
2017-08-08T03:37:08.830Z,15.33
2017-08-08T03:38:09.132Z,15.46
2017-08-08T03:39:08.808Z,15.46
2017-08-08T03:40:08.791Z,15.36
2017-08-08T03:41:08.782Z,15.39
2017-08-08T03:42:09.088Z,15.41
2017-08-08T03:43:09.073Z,15.42
2017-08-08T03:44:08.435Z,15.39
2017-08-08T03:45:08.734Z,15.35
2017-08-08T03:46:08.721Z,15.41
2017-08-08T03:47:09.030Z,15.33
2017-08-08T03:48:09.012Z,15.41
2017-08-08T03:49:08.995Z,15.43
2017-08-08T03:50:08.672Z,15.51
2017-08-08T03:51:08.976Z,15.52
2017-08-08T03:52:08.969Z,15.54
2017-08-08T03:53:08.946Z,15.54
2017-08-08T03:54:08.316Z,15.61
2017-08-08T03:55:08.618Z,15.49
2017-08-08T03:56:08.607Z,15.57
2017-08-08T03:57:08.585Z,15.54
2017-08-08T03:58:08.579Z,15.56
2017-08-08T03:59:08.879Z,15.57
2017-08-08T04:00:08.556Z,15.59
2017-08-08T04:01:08.542Z,15.56
2017-08-08T04:02:08.841Z,15.66
2017-08-08T04:03:08.522Z,15.56
2017-08-08T04:04:08.506Z,15.57
2017-08-08T04:05:08.804Z,15.59
2017-08-08T04:06:08.478Z,15.54
2017-08-08T04:07:08.787Z,15.6
2017-08-08T04:08:08.146Z,15.64
2017-08-08T04:09:08.758Z,15.6
2017-08-08T04:10:08.755Z,15.6
2017-08-08T04:11:08.736Z,15.64
2017-08-08T04:12:08.414Z,15.6
2017-08-08T04:13:08.400Z,15.6
2017-08-08T04:14:08.389Z,15.59
2017-08-08T04:15:08.374Z,15.63
2017-08-08T04:16:08.675Z,15.61
2017-08-08T04:17:08.669Z,15.6
2017-08-08T04:18:08.666Z,15.64
2017-08-08T04:19:08.017Z,15.64
2017-08-08T04:20:08.322Z,15.64
2017-08-08T04:21:08.620Z,15.64
2017-08-08T04:22:08.303Z,15.64
2017-08-08T04:23:08.284Z,15.64
2017-08-08T04:24:08.267Z,15.67
2017-08-08T04:25:08.256Z,15.7
2017-08-08T04:26:08.246Z,15.67
2017-08-08T04:27:08.229Z,15.7
2017-08-08T04:28:08.225Z,15.75
2017-08-08T04:29:08.213Z,15.75
2017-08-08T04:30:08.519Z,15.74
2017-08-08T04:31:07.873Z,15.74
2017-08-08T04:32:08.175Z,15.72
2017-08-08T04:33:08.163Z,15.72
2017-08-08T04:34:07.840Z,15.68
2017-08-08T04:35:08.143Z,15.72
2017-08-08T04:36:08.445Z,15.79
2017-08-08T04:37:08.434Z,15.86
2017-08-08T04:38:08.421Z,15.81
2017-08-08T04:39:08.111Z,15.89
2017-08-08T04:40:08.391Z,15.79
2017-08-08T04:41:08.378Z,15.85
2017-08-08T04:42:08.374Z,15.88
2017-08-08T04:43:08.353Z,15.96
2017-08-08T04:44:08.343Z,15.93
2017-08-08T04:45:07.709Z,15.93
2017-08-08T04:46:08.322Z,15.93
2017-08-08T04:47:07.999Z,15.92
2017-08-08T04:48:07.985Z,15.96
2017-08-08T04:49:07.973Z,15.93
2017-08-08T04:50:07.960Z,16
2017-08-08T04:51:07.949Z,15.94
2017-08-08T04:52:07.953Z,16
2017-08-08T04:53:08.240Z,16.06
2017-08-08T04:54:08.226Z,15.99
2017-08-08T04:55:07.907Z,16.03
2017-08-08T04:56:07.895Z,16.07
2017-08-08T04:57:07.920Z,16.11
2017-08-08T04:58:07.555Z,16.16
2017-08-08T04:59:07.546Z,16.09
2017-08-08T05:00:07.850Z,16.09
2017-08-08T05:01:07.867Z,16.16
2017-08-08T05:02:07.515Z,16.22
2017-08-08T05:03:07.863Z,16.2
2017-08-08T05:04:07.798Z,16.25
2017-08-08T05:05:07.792Z,16.27
2017-08-08T05:06:08.100Z,16.33
2017-08-08T05:07:07.452Z,16.27
2017-08-08T05:08:08.071Z,16.37
2017-08-08T05:09:07.748Z,16.33
2017-08-08T05:10:08.041Z,16.37
2017-08-08T05:11:07.721Z,16.37
2017-08-08T05:12:08.016Z,16.53
2017-08-08T05:13:08.007Z,16.5
2017-08-08T05:14:07.377Z,16.45
2017-08-08T05:15:07.359Z,16.49
2017-08-08T05:16:07.976Z,16.56
2017-08-08T05:17:07.654Z,16.58
2017-08-08T05:18:07.643Z,16.53
2017-08-08T05:19:07.628Z,16.65
2017-08-08T05:20:07.307Z,16.65
2017-08-08T05:21:07.609Z,16.73
2017-08-08T05:22:07.913Z,16.71
2017-08-08T05:23:07.590Z,16.74
2017-08-08T05:24:07.891Z,16.74
2017-08-08T05:25:07.876Z,16.71
2017-08-08T05:26:07.554Z,16.77
2017-08-08T05:27:07.855Z,16.88
2017-08-08T05:28:07.843Z,16.75
2017-08-08T05:29:07.522Z,16.74
2017-08-08T05:30:07.511Z,16.83
2017-08-08T05:31:07.498Z,16.86
2017-08-08T05:32:07.487Z,16.85
2017-08-08T05:33:07.683Z,16.89
2017-08-08T05:34:07.469Z,16.78
2017-08-08T05:35:07.142Z,16.75
2017-08-08T05:36:07.447Z,16.8
2017-08-08T05:37:07.742Z,16.95
2017-08-08T05:38:07.104Z,16.88
2017-08-08T05:39:07.410Z,16.86
2017-08-08T05:40:07.402Z,16.83
2017-08-08T05:41:07.386Z,16.93
2017-08-08T05:42:07.372Z,16.92
2017-08-08T05:43:07.683Z,16.96
2017-08-08T05:44:07.357Z,16.98
2017-08-08T05:45:07.346Z,17.04
2017-08-08T05:46:07.647Z,16.96
2017-08-08T05:47:07.635Z,16.93
2017-08-08T05:48:07.313Z,16.99
2017-08-08T05:49:06.991Z,16.96
2017-08-08T05:50:07.607Z,16.92
2017-08-08T05:51:07.282Z,16.99
2017-08-08T05:52:07.279Z,17
2017-08-08T05:53:07.580Z,17.03
2017-08-08T05:54:07.249Z,17.07
2017-08-08T05:55:07.233Z,17
2017-08-08T05:56:07.535Z,17.03
2017-08-08T05:57:07.214Z,17.03
2017-08-08T05:58:07.517Z,17.13
2017-08-08T05:59:07.197Z,17.14
2017-08-08T06:00:07.181Z,17.11
2017-08-08T06:01:06.859Z,17.17
2017-08-08T06:02:07.162Z,17.17
2017-08-08T06:03:07.465Z,17.2
2017-08-08T06:04:07.141Z,17.18
2017-08-08T06:05:07.133Z,17.26
2017-08-08T06:06:07.433Z,17.26
2017-08-08T06:07:07.427Z,17.33
2017-08-08T06:08:07.412Z,17.28
2017-08-08T06:09:07.136Z,17.32
2017-08-08T06:10:07.085Z,17.35
2017-08-08T06:11:07.380Z,17.32
2017-08-08T06:12:06.745Z,17.3
2017-08-08T06:13:07.357Z,17.29
2017-08-08T06:14:06.725Z,17.35
2017-08-08T06:15:07.024Z,17.29
2017-08-08T06:16:06.700Z,17.32
2017-08-08T06:17:07.346Z,17.41
2017-08-08T06:18:06.992Z,17.38
2017-08-08T06:19:06.976Z,17.41
2017-08-08T06:20:07.281Z,17.48
2017-08-08T06:21:06.649Z,17.48
2017-08-08T06:22:06.641Z,17.46
2017-08-08T06:23:06.942Z,17.57
2017-08-08T06:24:06.990Z,17.54
2017-08-08T06:25:06.608Z,17.64
2017-08-08T06:26:06.911Z,17.7
2017-08-08T06:27:07.221Z,17.69
2017-08-08T06:28:06.900Z,17.73
2017-08-08T06:29:06.884Z,17.7
2017-08-08T06:30:06.872Z,17.79
2017-08-08T06:31:07.167Z,17.84
2017-08-08T06:32:06.848Z,17.95
2017-08-08T06:33:07.150Z,17.91
2017-08-08T06:34:07.169Z,17.88
2017-08-08T06:35:06.854Z,18.04
2017-08-08T06:36:07.122Z,17.99
2017-08-08T06:37:06.798Z,18.07
2017-08-08T06:38:06.797Z,18.06
2017-08-08T06:39:07.097Z,18.19
2017-08-08T06:40:06.769Z,18.21
2017-08-08T06:41:06.446Z,18.19
2017-08-08T06:42:06.743Z,18.28
2017-08-08T06:43:07.051Z,18.19
2017-08-08T06:44:06.416Z,18.22
2017-08-08T06:45:07.028Z,18.22
2017-08-08T06:46:06.710Z,18.29
2017-08-08T06:47:06.697Z,18.33
2017-08-08T06:48:06.686Z,18.36
2017-08-08T06:49:06.993Z,18.37
2017-08-08T06:50:06.976Z,18.43
2017-08-08T06:51:06.656Z,18.46
2017-08-08T06:52:06.650Z,18.58
2017-08-08T06:53:06.638Z,18.57
2017-08-08T06:54:06.944Z,18.67
2017-08-08T06:55:06.621Z,18.65
2017-08-08T06:56:06.619Z,18.72
2017-08-08T06:57:06.284Z,18.82
2017-08-08T06:58:06.279Z,18.91
2017-08-08T06:59:06.268Z,18.94
2017-08-08T07:00:06.883Z,18.94
2017-08-08T07:01:06.880Z,19.1
2017-08-08T07:02:06.551Z,19.13
2017-08-08T07:03:06.856Z,19.21
2017-08-08T07:04:06.530Z,19.21
2017-08-08T07:05:06.524Z,19.29
2017-08-08T07:06:06.515Z,19.35
2017-08-08T07:07:06.504Z,19.35
2017-08-08T07:08:06.809Z,19.38
2017-08-08T07:09:06.811Z,19.38
2017-08-08T07:10:06.791Z,19.48
2017-08-08T07:11:06.793Z,19.47
2017-08-08T07:12:06.460Z,19.38
2017-08-08T07:13:06.766Z,19.54
2017-08-08T07:14:06.760Z,19.57
2017-08-08T07:15:06.437Z,19.54
2017-08-08T07:16:06.737Z,19.54
2017-08-08T07:17:06.727Z,19.6
2017-08-08T07:18:06.414Z,19.7
2017-08-08T07:19:06.403Z,19.66
2017-08-08T07:20:06.140Z,19.78
2017-08-08T07:21:06.393Z,19.73
2017-08-08T07:22:06.698Z,19.73
2017-08-08T07:23:06.370Z,19.75
2017-08-08T07:24:06.045Z,19.84
2017-08-08T07:25:06.667Z,19.91
2017-08-08T07:26:06.341Z,19.88
2017-08-08T07:27:06.404Z,19.94
2017-08-08T07:28:06.641Z,19.94
2017-08-08T07:29:06.317Z,19.91
2017-08-08T07:30:06.627Z,19.97
2017-08-08T07:31:06.297Z,20.06
2017-08-08T07:32:06.298Z,20.06
2017-08-08T07:33:06.809Z,20.05
2017-08-08T07:34:05.967Z,20.05
2017-08-08T07:35:06.586Z,20.18
2017-08-08T07:36:06.580Z,20.09
2017-08-08T07:37:06.573Z,20.16
2017-08-08T07:38:06.557Z,20.13
2017-08-08T07:39:05.936Z,20.08
2017-08-08T07:40:06.615Z,20.16
2017-08-08T07:41:05.906Z,20.23
2017-08-08T07:42:06.220Z,20.27
2017-08-08T07:43:06.213Z,20.27
2017-08-08T07:44:05.889Z,20.25
2017-08-08T07:45:06.504Z,20.31
2017-08-08T07:46:06.495Z,20.41
2017-08-08T07:47:06.176Z,20.39
2017-08-08T07:48:06.194Z,20.43
2017-08-08T07:49:05.846Z,20.53
2017-08-08T07:50:06.201Z,20.5
2017-08-08T07:51:06.152Z,20.54
2017-08-08T07:52:06.139Z,20.64
2017-08-08T07:53:06.144Z,20.64
2017-08-08T07:54:06.438Z,20.65
2017-08-08T07:55:06.428Z,20.65
2017-08-08T07:56:06.116Z,20.68
2017-08-08T07:57:05.788Z,20.77
2017-08-08T07:58:06.096Z,20.79
2017-08-08T07:59:06.397Z,20.68
2017-08-08T08:00:06.396Z,20.84
2017-08-08T08:01:06.383Z,20.83
2017-08-08T08:02:06.059Z,20.91
2017-08-08T08:03:06.057Z,20.93
2017-08-08T08:04:06.047Z,20.96
2017-08-08T08:05:06.038Z,21.01
2017-08-08T08:06:06.034Z,21.04
2017-08-08T08:07:06.347Z,21.06
2017-08-08T08:08:06.053Z,21.2
2017-08-08T08:09:06.011Z,21.21
2017-08-08T08:10:06.376Z,21.26
2017-08-08T08:11:06.000Z,21.29
2017-08-08T08:12:06.305Z,21.27
2017-08-08T08:13:05.987Z,21.26
2017-08-08T08:14:05.979Z,21.24
2017-08-08T08:15:05.970Z,21.29
2017-08-08T08:16:05.965Z,21.34
2017-08-08T08:17:05.961Z,21.39
2017-08-08T08:18:05.951Z,21.44
2017-08-08T08:19:05.637Z,21.44
2017-08-08T08:20:06.251Z,21.45
2017-08-08T08:21:05.928Z,21.44
2017-08-08T08:22:05.923Z,21.39
2017-08-08T08:23:06.228Z,21.36
2017-08-08T08:24:05.598Z,21.5
2017-08-08T08:25:05.600Z,21.5
2017-08-08T08:26:06.205Z,21.57
2017-08-08T08:27:05.889Z,21.59
2017-08-08T08:28:05.894Z,21.45
2017-08-08T08:29:05.563Z,21.56
2017-08-08T08:30:05.865Z,21.56
2017-08-08T08:31:05.880Z,21.48
2017-08-08T08:32:05.858Z,21.53
2017-08-08T08:33:05.535Z,21.57
2017-08-08T08:34:06.155Z,21.61
2017-08-08T08:35:05.841Z,21.6
2017-08-08T08:36:06.142Z,21.57
2017-08-08T08:37:05.825Z,21.63
2017-08-08T08:38:05.820Z,21.66
2017-08-08T08:39:05.813Z,21.63
2017-08-08T08:40:06.120Z,21.69
2017-08-08T08:41:06.108Z,21.74
2017-08-08T08:42:05.472Z,21.76
2017-08-08T08:43:05.785Z,21.76
2017-08-08T08:44:06.092Z,21.71
2017-08-08T08:45:05.461Z,21.74
2017-08-08T08:46:06.100Z,21.85
2017-08-08T08:47:05.759Z,21.75
2017-08-08T08:48:06.061Z,21.85
2017-08-08T08:49:05.744Z,21.98
2017-08-08T08:50:05.527Z,21.97
2017-08-08T08:51:06.044Z,21.94
2017-08-08T08:52:06.042Z,21.97
2017-08-08T08:53:05.414Z,22.01
2017-08-08T08:54:05.717Z,22.06
2017-08-08T08:55:06.066Z,22.04
2017-08-08T08:56:06.036Z,22.09
2017-08-08T08:57:05.695Z,22.1
2017-08-08T08:58:05.694Z,22.19
2017-08-08T08:59:05.680Z,22.27
2017-08-08T09:00:05.995Z,22.27
2017-08-08T09:01:05.362Z,22.35
2017-08-08T09:02:05.668Z,22.35
2017-08-08T09:03:05.656Z,22.38
2017-08-08T09:04:05.650Z,22.35
2017-08-08T09:05:05.644Z,22.46
2017-08-08T09:06:05.641Z,22.52
2017-08-08T09:07:05.949Z,22.49
2017-08-08T09:08:05.626Z,22.56
2017-08-08T09:09:05.621Z,22.53
2017-08-08T09:10:05.684Z,22.57
2017-08-08T09:11:05.609Z,22.56
2017-08-08T09:12:05.630Z,22.69
2017-08-08T09:13:05.921Z,22.67
2017-08-08T09:14:05.903Z,22.71
2017-08-08T09:15:05.271Z,22.82
2017-08-08T09:16:05.892Z,22.82
2017-08-08T09:17:05.585Z,22.82
2017-08-08T09:18:05.571Z,22.84
2017-08-08T09:19:05.561Z,22.87
2017-08-08T09:20:06.066Z,22.86
2017-08-08T09:21:05.865Z,22.96
2017-08-08T09:22:05.545Z,22.92
2017-08-08T09:23:05.858Z,22.93
2017-08-08T09:24:05.226Z,22.89
2017-08-08T09:25:05.217Z,22.87
2017-08-08T09:26:05.209Z,22.92
2017-08-08T09:27:05.517Z,22.86
2017-08-08T09:28:05.826Z,22.94
2017-08-08T09:29:05.817Z,22.97
2017-08-08T09:30:05.552Z,22.96
2017-08-08T09:31:05.180Z,22.96
2017-08-08T09:32:05.487Z,22.96
2017-08-08T09:33:05.999Z,22.87
2017-08-08T09:34:05.506Z,22.94
2017-08-08T09:35:05.788Z,22.89
2017-08-08T09:36:05.159Z,22.9
2017-08-08T09:37:05.465Z,22.94
2017-08-08T09:38:05.460Z,22.83
2017-08-08T09:39:05.763Z,22.92
2017-08-08T09:40:05.755Z,22.92
2017-08-08T09:41:05.750Z,22.92
2017-08-08T09:42:05.637Z,22.93
2017-08-08T09:43:05.431Z,22.96
2017-08-08T09:44:05.108Z,22.93
2017-08-08T09:45:05.104Z,22.99
2017-08-08T09:46:05.715Z,22.96
2017-08-08T09:47:05.725Z,22.97
2017-08-08T09:48:05.399Z,22.94
2017-08-08T09:49:05.392Z,22.97
2017-08-08T09:50:05.385Z,22.99
2017-08-08T09:51:05.694Z,22.97
2017-08-08T09:52:05.390Z,22.9
2017-08-08T09:53:05.682Z,22.94
2017-08-08T09:54:05.360Z,22.96
2017-08-08T09:55:05.360Z,22.9
2017-08-08T09:56:05.352Z,22.89
2017-08-08T09:57:05.666Z,22.92
2017-08-08T09:58:05.341Z,22.97
2017-08-08T09:59:05.640Z,22.99
2017-08-08T10:00:05.327Z,22.99
2017-08-08T10:01:05.634Z,23.02
2017-08-08T10:02:05.316Z,23.04
2017-08-08T10:03:05.330Z,23.02
2017-08-08T10:04:05.615Z,23.09
2017-08-08T10:05:05.298Z,23.05
2017-08-08T10:06:05.607Z,23.05
2017-08-08T10:07:04.976Z,23.14
2017-08-08T10:08:05.600Z,23.14
2017-08-08T10:09:05.585Z,23.17
2017-08-08T10:10:04.990Z,23.08
2017-08-08T10:11:05.266Z,23.08
2017-08-08T10:12:05.573Z,23.11
2017-08-08T10:13:04.945Z,23.17
2017-08-08T10:14:05.562Z,23.15
2017-08-08T10:15:05.276Z,23.08
2017-08-08T10:16:05.602Z,23.19
2017-08-08T10:17:05.229Z,23.19
2017-08-08T10:18:05.278Z,23.19
2017-08-08T10:19:05.218Z,23.22
2017-08-08T10:20:05.218Z,23.24
2017-08-08T10:21:05.204Z,23.15
2017-08-08T10:22:05.197Z,23.11
2017-08-08T10:23:05.511Z,23.15
2017-08-08T10:24:05.186Z,23.12
2017-08-08T10:25:05.183Z,23.12
2017-08-08T10:26:05.226Z,23.14
2017-08-08T10:27:05.486Z,23.19
2017-08-08T10:28:05.178Z,23.23
2017-08-08T10:29:05.180Z,23.19
2017-08-08T10:30:05.480Z,23.15
2017-08-08T10:31:05.154Z,23.17
2017-08-08T10:32:05.461Z,23.24
2017-08-08T10:33:05.134Z,23.26
2017-08-08T10:34:05.127Z,23.34
2017-08-08T10:35:05.124Z,23.23
2017-08-08T10:36:05.431Z,23.23
2017-08-08T10:37:05.440Z,23.26
2017-08-08T10:38:05.441Z,23.27
2017-08-08T10:39:04.798Z,23.26
2017-08-08T10:40:05.097Z,23.27
2017-08-08T10:41:05.403Z,23.27
2017-08-08T10:42:04.773Z,23.27
2017-08-08T10:43:05.398Z,23.38
2017-08-08T10:44:05.382Z,23.29
2017-08-08T10:45:04.760Z,23.31
2017-08-08T10:46:05.067Z,23.31
2017-08-08T10:47:05.060Z,23.42
2017-08-08T10:48:05.054Z,23.32
2017-08-08T10:49:05.255Z,23.23
2017-08-08T10:50:05.552Z,23.29
2017-08-08T10:51:05.039Z,23.35
2017-08-08T10:52:05.343Z,23.27
2017-08-08T10:53:05.018Z,23.32
2017-08-08T10:54:05.331Z,23.24
2017-08-08T10:55:05.016Z,23.24
2017-08-08T10:56:05.002Z,23.27
2017-08-08T10:57:05.513Z,23.26
2017-08-08T10:58:05.302Z,23.24
2017-08-08T10:59:05.303Z,23.26
2017-08-08T11:00:04.979Z,23.26
2017-08-08T11:01:05.288Z,23.24
2017-08-08T11:02:05.291Z,23.2
2017-08-08T11:03:04.963Z,23.17
2017-08-08T11:04:04.989Z,23.17
2017-08-08T11:05:05.269Z,23.14
2017-08-08T11:06:05.302Z,23.09
2017-08-08T11:07:04.934Z,23.15
2017-08-08T11:08:04.938Z,23.14
2017-08-08T11:09:04.933Z,23.09
2017-08-08T11:10:04.930Z,23.12
2017-08-08T11:11:04.921Z,23.09
2017-08-08T11:12:05.271Z,23.09
2017-08-08T11:13:05.212Z,23.11
2017-08-08T11:14:05.219Z,23.02
2017-08-08T11:15:05.206Z,23.05
2017-08-08T11:16:04.893Z,23.11
2017-08-08T11:17:04.872Z,23.08
2017-08-08T11:18:04.866Z,23.05
2017-08-08T11:19:04.550Z,22.96
2017-08-08T11:20:04.857Z,22.96
2017-08-08T11:21:05.163Z,22.84
2017-08-08T11:22:05.155Z,22.84
2017-08-08T11:23:04.839Z,22.84
2017-08-08T11:24:04.829Z,22.83
2017-08-08T11:25:04.514Z,22.82
2017-08-08T11:26:04.819Z,22.71
2017-08-08T11:27:05.126Z,22.69
2017-08-08T11:28:05.124Z,22.69
2017-08-08T11:29:04.496Z,22.6
2017-08-08T11:30:05.104Z,22.59
2017-08-08T11:31:05.098Z,22.52
2017-08-08T11:32:04.788Z,22.46
2017-08-08T11:33:05.174Z,22.41
2017-08-08T11:34:04.760Z,22.47
2017-08-08T11:35:04.758Z,22.39
2017-08-08T11:36:04.450Z,22.43
2017-08-08T11:37:04.743Z,22.34
2017-08-08T11:38:04.764Z,22.34
2017-08-08T11:39:04.419Z,22.32
2017-08-08T11:40:04.725Z,22.27
2017-08-08T11:41:05.028Z,22.27
2017-08-08T11:42:05.023Z,22.2
2017-08-08T11:43:04.702Z,22.23
2017-08-08T11:44:04.697Z,22.13
2017-08-08T11:45:04.718Z,22.17
2017-08-08T11:46:04.996Z,22.07
2017-08-08T11:47:04.679Z,22.13
2017-08-08T11:48:04.990Z,21.98
2017-08-08T11:49:04.983Z,21.85
2017-08-08T11:50:04.967Z,21.88
2017-08-08T11:51:04.964Z,21.9
2017-08-08T11:52:04.982Z,21.91
2017-08-08T11:53:04.947Z,21.83
2017-08-08T11:54:04.626Z,21.85
2017-08-08T11:55:04.618Z,21.82
2017-08-08T11:56:04.616Z,21.71
2017-08-08T11:57:04.947Z,21.74
2017-08-08T11:58:04.597Z,21.59
2017-08-08T11:59:04.593Z,21.56
2017-08-08T12:00:04.587Z,21.6
2017-08-08T12:01:04.896Z,21.54
2017-08-08T12:02:04.933Z,21.56
2017-08-08T12:03:04.570Z,21.57
2017-08-08T12:04:04.556Z,21.53
2017-08-08T12:05:04.548Z,21.45
2017-08-08T12:06:04.548Z,21.53
2017-08-08T12:07:04.531Z,21.54
2017-08-08T12:08:04.849Z,21.48
2017-08-08T12:09:04.204Z,21.44
2017-08-08T12:10:04.513Z,21.41
2017-08-08T12:11:04.192Z,21.39
2017-08-08T12:12:04.851Z,21.46
2017-08-08T12:13:04.814Z,21.39
2017-08-08T12:14:04.794Z,21.42
2017-08-08T12:15:04.470Z,21.48
2017-08-08T12:16:04.788Z,21.59
2017-08-08T12:17:04.468Z,21.5
2017-08-08T12:18:04.762Z,21.5
2017-08-08T12:19:04.754Z,21.54
2017-08-08T12:20:04.123Z,21.48
2017-08-08T12:21:04.427Z,21.6
2017-08-08T12:22:04.786Z,21.64
2017-08-08T12:23:04.723Z,21.76
2017-08-08T12:24:04.726Z,21.74
2017-08-08T12:25:04.395Z,21.92
2017-08-08T12:26:04.698Z,21.99
2017-08-08T12:27:04.384Z,21.99
2017-08-08T12:28:04.065Z,22.07
2017-08-08T12:29:04.371Z,22.09
2017-08-08T12:30:04.689Z,22.23
2017-08-08T12:31:04.668Z,22.17
2017-08-08T12:32:04.040Z,22.28
2017-08-08T12:33:04.342Z,22.16
2017-08-08T12:34:04.335Z,22.19
2017-08-08T12:35:04.647Z,22.1
2017-08-08T12:36:04.323Z,22.07
2017-08-08T12:37:04.329Z,22.1
2017-08-08T12:38:04.615Z,21.98
2017-08-08T12:39:04.619Z,22.06
2017-08-08T12:40:04.605Z,22.09
2017-08-08T12:41:04.600Z,22.09
2017-08-08T12:42:04.590Z,22.09
2017-08-08T12:43:04.580Z,22.14
2017-08-08T12:44:04.579Z,22.25
2017-08-08T12:45:04.610Z,22.27
2017-08-08T12:46:03.940Z,22.27
2017-08-08T12:47:04.250Z,22.27
2017-08-08T12:48:04.292Z,22.2
2017-08-08T12:49:04.232Z,22.2
2017-08-08T12:50:04.550Z,22.19
2017-08-08T12:51:04.221Z,22.06
2017-08-08T12:52:04.214Z,22.01
2017-08-08T12:53:03.901Z,22.02
2017-08-08T12:54:04.206Z,22.04